sensor_id;sensor_type;location;lat;lon;timestamp;P1;durP1;ratioP1;P2;durP2;ratioP2
4106;SDS011;21906;50.812;7.132;2022-08-14T00:00:36;7.97;;;7.47;;
4106;SDS011;21906;50.812;7.132;2022-08-14T00:03:02;7.40;;;7.00;;
4106;SDS011;21906;50.812;7.132;2022-08-14T00:05:28;7.50;;;7.10;;
4106;SDS011;21906;50.812;7.132;2022-08-14T00:07:53;6.70;;;6.40;;
4106;SDS011;21906;50.812;7.132;2022-08-14T00:10:19;7.47;;;6.90;;
4106;SDS011;21906;50.812;7.132;2022-08-14T00:12:47;7.23;;;6.80;;
4106;SDS011;21906;50.812;7.132;2022-08-14T00:15:17;7.33;;;6.57;;
4106;SDS011;21906;50.812;7.132;2022-08-14T00:17:46;7.23;;;6.73;;
4106;SDS011;21906;50.812;7.132;2022-08-14T00:20:12;7.57;;;7.10;;
4106;SDS011;21906;50.812;7.132;2022-08-14T00:22:38;7.30;;;6.87;;
4106;SDS011;21906;50.812;7.132;2022-08-14T00:25:07;6.77;;;6.37;;
4106;SDS011;21906;50.812;7.132;2022-08-14T00:27:34;6.67;;;6.17;;
4106;SDS011;21906;50.812;7.132;2022-08-14T00:30:02;6.80;;;6.40;;
4106;SDS011;21906;50.812;7.132;2022-08-14T00:32:30;7.10;;;6.70;;
4106;SDS011;21906;50.812;7.132;2022-08-14T00:34:56;7.20;;;6.80;;
4106;SDS011;21906;50.812;7.132;2022-08-14T00:37:25;7.20;;;6.70;;
4106;SDS011;21906;50.812;7.132;2022-08-14T00:39:54;6.97;;;6.57;;
4106;SDS011;21906;50.812;7.132;2022-08-14T00:42:20;7.17;;;6.77;;
4106;SDS011;21906;50.812;7.132;2022-08-14T00:44:46;7.33;;;6.80;;
4106;SDS011;21906;50.812;7.132;2022-08-14T00:47:12;7.50;;;7.03;;
4106;SDS011;21906;50.812;7.132;2022-08-14T00:49:39;7.17;;;6.77;;
4106;SDS011;21906;50.812;7.132;2022-08-14T00:52:04;7.87;;;7.27;;
4106;SDS011;21906;50.812;7.132;2022-08-14T00:54:31;7.40;;;7.00;;
4106;SDS011;21906;50.812;7.132;2022-08-14T00:56:57;7.07;;;6.77;;
4106;SDS011;21906;50.812;7.132;2022-08-14T00:59:24;7.40;;;7.00;;
4106;SDS011;21906;50.812;7.132;2022-08-14T01:01:53;8.30;;;7.63;;
4106;SDS011;21906;50.812;7.132;2022-08-14T01:04:22;7.80;;;7.30;;
4106;SDS011;21906;50.812;7.132;2022-08-14T01:06:48;7.30;;;6.80;;
4106;SDS011;21906;50.812;7.132;2022-08-14T01:09:16;7.37;;;6.87;;
4106;SDS011;21906;50.812;7.132;2022-08-14T01:11:47;7.10;;;6.70;;
4106;SDS011;21906;50.812;7.132;2022-08-14T01:14:14;7.90;;;7.30;;
4106;SDS011;21906;50.812;7.132;2022-08-14T01:16:44;7.07;;;6.70;;
4106;SDS011;21906;50.812;7.132;2022-08-14T01:19:11;7.87;;;7.37;;
4106;SDS011;21906;50.812;7.132;2022-08-14T01:22:07;7.93;;;7.47;;
4106;SDS011;21906;50.812;7.132;2022-08-14T01:24:34;8.30;;;7.60;;
4106;SDS011;21906;50.812;7.132;2022-08-14T01:27:00;8.67;;;8.00;;
4106;SDS011;21906;50.812;7.132;2022-08-14T01:29:29;7.77;;;7.20;;
4106;SDS011;21906;50.812;7.132;2022-08-14T01:31:59;7.27;;;6.87;;
4106;SDS011;21906;50.812;7.132;2022-08-14T01:34:27;7.80;;;7.30;;
4106;SDS011;21906;50.812;7.132;2022-08-14T01:36:53;8.60;;;8.00;;
4106;SDS011;21906;50.812;7.132;2022-08-14T01:42:41;8.70;;;8.10;;
4106;SDS011;21906;50.812;7.132;2022-08-14T01:45:07;8.30;;;7.80;;
4106;SDS011;21906;50.812;7.132;2022-08-14T01:47:39;8.43;;;7.83;;
4106;SDS011;21906;50.812;7.132;2022-08-14T01:50:06;8.77;;;7.97;;
4106;SDS011;21906;50.812;7.132;2022-08-14T01:52:33;8.80;;;7.90;;
4106;SDS011;21906;50.812;7.132;2022-08-14T01:55:01;9.30;;;8.40;;
4106;SDS011;21906;50.812;7.132;2022-08-14T01:57:30;9.93;;;9.13;;
4106;SDS011;21906;50.812;7.132;2022-08-14T01:59:57;9.17;;;8.53;;
4106;SDS011;21906;50.812;7.132;2022-08-14T02:02:23;9.17;;;8.33;;
4106;SDS011;21906;50.812;7.132;2022-08-14T02:04:49;8.83;;;8.13;;
4106;SDS011;21906;50.812;7.132;2022-08-14T02:07:15;9.90;;;8.90;;
4106;SDS011;21906;50.812;7.132;2022-08-14T02:09:41;9.60;;;8.90;;
4106;SDS011;21906;50.812;7.132;2022-08-14T02:12:07;9.63;;;8.90;;
4106;SDS011;21906;50.812;7.132;2022-08-14T02:14:33;8.83;;;8.20;;
4106;SDS011;21906;50.812;7.132;2022-08-14T02:16:59;9.10;;;8.50;;
4106;SDS011;21906;50.812;7.132;2022-08-14T02:19:26;10.27;;;9.40;;
4106;SDS011;21906;50.812;7.132;2022-08-14T02:21:55;8.63;;;8.13;;
4106;SDS011;21906;50.812;7.132;2022-08-14T02:24:23;9.30;;;8.60;;
4106;SDS011;21906;50.812;7.132;2022-08-14T02:26:51;8.63;;;8.03;;
4106;SDS011;21906;50.812;7.132;2022-08-14T02:29:21;9.13;;;8.43;;
4106;SDS011;21906;50.812;7.132;2022-08-14T02:31:51;9.53;;;8.83;;
4106;SDS011;21906;50.812;7.132;2022-08-14T02:34:27;9.40;;;8.80;;
4106;SDS011;21906;50.812;7.132;2022-08-14T02:36:59;9.50;;;8.80;;
4106;SDS011;21906;50.812;7.132;2022-08-14T02:39:27;9.57;;;8.90;;
4106;SDS011;21906;50.812;7.132;2022-08-14T02:41:55;9.30;;;8.60;;
4106;SDS011;21906;50.812;7.132;2022-08-14T02:44:21;10.17;;;9.20;;
4106;SDS011;21906;50.812;7.132;2022-08-14T02:46:48;9.73;;;9.03;;
4106;SDS011;21906;50.812;7.132;2022-08-14T02:49:15;9.50;;;8.80;;
4106;SDS011;21906;50.812;7.132;2022-08-14T02:51:41;10.30;;;9.60;;
4106;SDS011;21906;50.812;7.132;2022-08-14T02:54:12;10.30;;;9.60;;
4106;SDS011;21906;50.812;7.132;2022-08-14T02:56:38;9.77;;;9.07;;
4106;SDS011;21906;50.812;7.132;2022-08-14T02:59:05;10.40;;;9.50;;
4106;SDS011;21906;50.812;7.132;2022-08-14T03:01:33;9.83;;;9.13;;
4106;SDS011;21906;50.812;7.132;2022-08-14T03:04:00;10.37;;;9.47;;
4106;SDS011;21906;50.812;7.132;2022-08-14T03:06:29;10.40;;;9.50;;
4106;SDS011;21906;50.812;7.132;2022-08-14T03:08:54;10.07;;;9.37;;
4106;SDS011;21906;50.812;7.132;2022-08-14T03:11:21;10.03;;;9.10;;
4106;SDS011;21906;50.812;7.132;2022-08-14T03:13:48;10.20;;;9.50;;
4106;SDS011;21906;50.812;7.132;2022-08-14T03:16:16;10.30;;;9.50;;
4106;SDS011;21906;50.812;7.132;2022-08-14T03:18:44;11.10;;;10.10;;
4106;SDS011;21906;50.812;7.132;2022-08-14T03:21:15;10.20;;;9.33;;
4106;SDS011;21906;50.812;7.132;2022-08-14T03:23:43;11.60;;;10.60;;
4106;SDS011;21906;50.812;7.132;2022-08-14T03:26:13;11.10;;;10.10;;
4106;SDS011;21906;50.812;7.132;2022-08-14T03:28:42;10.47;;;9.67;;
4106;SDS011;21906;50.812;7.132;2022-08-14T03:31:09;10.97;;;9.97;;
4106;SDS011;21906;50.812;7.132;2022-08-14T03:33:36;10.30;;;9.57;;
4106;SDS011;21906;50.812;7.132;2022-08-14T03:36:05;10.73;;;9.93;;
4106;SDS011;21906;50.812;7.132;2022-08-14T03:38:36;11.67;;;10.77;;
4106;SDS011;21906;50.812;7.132;2022-08-14T03:41:06;10.40;;;9.60;;
4106;SDS011;21906;50.812;7.132;2022-08-14T03:43:38;10.80;;;9.87;;
4106;SDS011;21906;50.812;7.132;2022-08-14T03:46:04;11.10;;;10.20;;
4106;SDS011;21906;50.812;7.132;2022-08-14T03:48:30;10.73;;;9.83;;
4106;SDS011;21906;50.812;7.132;2022-08-14T03:50:56;10.77;;;9.63;;
4106;SDS011;21906;50.812;7.132;2022-08-14T03:53:21;9.83;;;9.10;;
4106;SDS011;21906;50.812;7.132;2022-08-14T03:55:47;10.47;;;9.70;;
4106;SDS011;21906;50.812;7.132;2022-08-14T03:58:13;11.07;;;10.17;;
4106;SDS011;21906;50.812;7.132;2022-08-14T04:00:39;11.47;;;10.60;;
4106;SDS011;21906;50.812;7.132;2022-08-14T04:03:07;11.37;;;10.37;;
4106;SDS011;21906;50.812;7.132;2022-08-14T04:05:34;10.83;;;10.00;;
4106;SDS011;21906;50.812;7.132;2022-08-14T04:08:03;11.27;;;10.17;;
4106;SDS011;21906;50.812;7.132;2022-08-14T04:10:35;10.97;;;10.17;;
4106;SDS011;21906;50.812;7.132;2022-08-14T04:13:02;10.90;;;9.83;;
4106;SDS011;21906;50.812;7.132;2022-08-14T04:15:33;10.80;;;10.00;;
4106;SDS011;21906;50.812;7.132;2022-08-14T04:18:05;11.03;;;10.00;;
4106;SDS011;21906;50.812;7.132;2022-08-14T04:20:32;11.87;;;10.87;;
4106;SDS011;21906;50.812;7.132;2022-08-14T04:23:01;12.13;;;11.00;;
4106;SDS011;21906;50.812;7.132;2022-08-14T04:25:28;11.50;;;10.60;;
4106;SDS011;21906;50.812;7.132;2022-08-14T04:27:58;11.27;;;10.37;;
4106;SDS011;21906;50.812;7.132;2022-08-14T04:30:24;10.87;;;10.07;;
4106;SDS011;21906;50.812;7.132;2022-08-14T04:32:54;11.67;;;10.57;;
4106;SDS011;21906;50.812;7.132;2022-08-14T04:35:21;11.00;;;10.20;;
4106;SDS011;21906;50.812;7.132;2022-08-14T04:37:47;12.17;;;11.17;;
4106;SDS011;21906;50.812;7.132;2022-08-14T04:40:31;12.07;;;10.87;;
4106;SDS011;21906;50.812;7.132;2022-08-14T04:43:15;11.10;;;10.13;;
4106;SDS011;21906;50.812;7.132;2022-08-14T04:45:59;12.07;;;10.97;;
4106;SDS011;21906;50.812;7.132;2022-08-14T04:48:26;11.10;;;10.30;;
4106;SDS011;21906;50.812;7.132;2022-08-14T04:50:53;11.57;;;10.57;;
4106;SDS011;21906;50.812;7.132;2022-08-14T04:53:21;11.80;;;10.83;;
4106;SDS011;21906;50.812;7.132;2022-08-14T04:55:50;11.87;;;10.87;;
4106;SDS011;21906;50.812;7.132;2022-08-14T04:58:18;12.37;;;11.47;;
4106;SDS011;21906;50.812;7.132;2022-08-14T05:00:46;11.60;;;10.70;;
4106;SDS011;21906;50.812;7.132;2022-08-14T05:03:16;11.83;;;10.93;;
4106;SDS011;21906;50.812;7.132;2022-08-14T05:05:45;11.80;;;10.90;;
4106;SDS011;21906;50.812;7.132;2022-08-14T05:08:14;11.53;;;10.63;;
4106;SDS011;21906;50.812;7.132;2022-08-14T05:10:42;12.23;;;11.23;;
4106;SDS011;21906;50.812;7.132;2022-08-14T05:13:10;12.27;;;11.37;;
4106;SDS011;21906;50.812;7.132;2022-08-14T05:15:39;12.07;;;11.07;;
4106;SDS011;21906;50.812;7.132;2022-08-14T05:18:09;12.60;;;11.47;;
4106;SDS011;21906;50.812;7.132;2022-08-14T05:20:44;12.20;;;11.20;;
4106;SDS011;21906;50.812;7.132;2022-08-14T05:23:11;12.37;;;11.40;;
4106;SDS011;21906;50.812;7.132;2022-08-14T05:25:38;11.70;;;10.70;;
4106;SDS011;21906;50.812;7.132;2022-08-14T05:28:05;11.27;;;10.33;;
4106;SDS011;21906;50.812;7.132;2022-08-14T05:30:46;12.10;;;11.00;;
4106;SDS011;21906;50.812;7.132;2022-08-14T05:33:17;11.90;;;11.00;;
4106;SDS011;21906;50.812;7.132;2022-08-14T05:35:45;12.40;;;11.23;;
4106;SDS011;21906;50.812;7.132;2022-08-14T05:38:13;12.17;;;11.27;;
4106;SDS011;21906;50.812;7.132;2022-08-14T05:40:41;11.20;;;10.30;;
4106;SDS011;21906;50.812;7.132;2022-08-14T05:43:07;12.70;;;11.63;;
4106;SDS011;21906;50.812;7.132;2022-08-14T05:45:34;11.47;;;10.67;;
4106;SDS011;21906;50.812;7.132;2022-08-14T05:48:03;12.37;;;11.37;;
4106;SDS011;21906;50.812;7.132;2022-08-14T05:50:31;12.87;;;11.67;;
4106;SDS011;21906;50.812;7.132;2022-08-14T05:52:57;11.97;;;10.97;;
4106;SDS011;21906;50.812;7.132;2022-08-14T05:55:23;12.40;;;11.50;;
4106;SDS011;21906;50.812;7.132;2022-08-14T05:57:52;11.40;;;10.50;;
4106;SDS011;21906;50.812;7.132;2022-08-14T06:00:25;12.90;;;11.90;;
4106;SDS011;21906;50.812;7.132;2022-08-14T06:02:57;11.63;;;10.83;;
4106;SDS011;21906;50.812;7.132;2022-08-14T06:05:24;12.53;;;11.53;;
4106;SDS011;21906;50.812;7.132;2022-08-14T06:07:50;12.03;;;11.00;;
4106;SDS011;21906;50.812;7.132;2022-08-14T06:10:16;12.10;;;11.10;;
4106;SDS011;21906;50.812;7.132;2022-08-14T06:12:42;12.70;;;11.70;;
4106;SDS011;21906;50.812;7.132;2022-08-14T06:15:08;12.90;;;11.80;;
4106;SDS011;21906;50.812;7.132;2022-08-14T06:20:13;13.37;;;12.27;;
4106;SDS011;21906;50.812;7.132;2022-08-14T06:22:40;13.37;;;12.20;;
4106;SDS011;21906;50.812;7.132;2022-08-14T06:25:08;12.83;;;11.73;;
4106;SDS011;21906;50.812;7.132;2022-08-14T06:27:38;11.87;;;10.97;;
4106;SDS011;21906;50.812;7.132;2022-08-14T06:30:09;13.20;;;11.97;;
4106;SDS011;21906;50.812;7.132;2022-08-14T06:32:36;13.03;;;11.97;;
4106;SDS011;21906;50.812;7.132;2022-08-14T06:35:03;12.00;;;11.07;;
4106;SDS011;21906;50.812;7.132;2022-08-14T06:40:10;13.43;;;12.13;;
4106;SDS011;21906;50.812;7.132;2022-08-14T06:42:37;13.00;;;12.00;;
4106;SDS011;21906;50.812;7.132;2022-08-14T06:45:03;12.77;;;11.67;;
4106;SDS011;21906;50.812;7.132;2022-08-14T06:47:37;12.80;;;11.80;;
4106;SDS011;21906;50.812;7.132;2022-08-14T06:50:11;12.90;;;11.80;;
4106;SDS011;21906;50.812;7.132;2022-08-14T06:52:39;12.80;;;11.80;;
4106;SDS011;21906;50.812;7.132;2022-08-14T06:55:06;12.53;;;11.53;;
4106;SDS011;21906;50.812;7.132;2022-08-14T06:57:34;12.27;;;11.37;;
4106;SDS011;21906;50.812;7.132;2022-08-14T07:00:07;12.10;;;11.20;;
4106;SDS011;21906;50.812;7.132;2022-08-14T07:02:34;12.77;;;11.83;;
4106;SDS011;21906;50.812;7.132;2022-08-14T07:05:19;11.90;;;10.90;;
4106;SDS011;21906;50.812;7.132;2022-08-14T07:08:04;13.37;;;12.30;;
4106;SDS011;21906;50.812;7.132;2022-08-14T07:10:30;12.20;;;11.30;;
4106;SDS011;21906;50.812;7.132;2022-08-14T07:12:56;12.57;;;11.67;;
4106;SDS011;21906;50.812;7.132;2022-08-14T07:15:22;12.27;;;11.37;;
4106;SDS011;21906;50.812;7.132;2022-08-14T07:17:48;12.33;;;11.40;;
4106;SDS011;21906;50.812;7.132;2022-08-14T07:20:15;12.20;;;11.07;;
4106;SDS011;21906;50.812;7.132;2022-08-14T07:22:45;11.90;;;11.00;;
4106;SDS011;21906;50.812;7.132;2022-08-14T07:25:11;12.53;;;11.63;;
4106;SDS011;21906;50.812;7.132;2022-08-14T07:27:38;11.77;;;10.97;;
4106;SDS011;21906;50.812;7.132;2022-08-14T07:30:05;11.80;;;10.90;;
4106;SDS011;21906;50.812;7.132;2022-08-14T07:32:31;11.80;;;11.00;;
4106;SDS011;21906;50.812;7.132;2022-08-14T07:34:57;11.90;;;11.00;;
4106;SDS011;21906;50.812;7.132;2022-08-14T07:37:23;11.90;;;10.93;;
4106;SDS011;21906;50.812;7.132;2022-08-14T07:39:48;11.80;;;10.90;;
4106;SDS011;21906;50.812;7.132;2022-08-14T07:42:15;12.00;;;10.83;;
4106;SDS011;21906;50.812;7.132;2022-08-14T07:44:41;11.53;;;10.63;;
4106;SDS011;21906;50.812;7.132;2022-08-14T07:47:06;12.47;;;11.30;;
4106;SDS011;21906;50.812;7.132;2022-08-14T07:49:32;10.93;;;10.23;;
4106;SDS011;21906;50.812;7.132;2022-08-14T07:51:59;11.00;;;10.23;;
4106;SDS011;21906;50.812;7.132;2022-08-14T07:54:26;11.03;;;10.20;;
4106;SDS011;21906;50.812;7.132;2022-08-14T07:56:51;11.50;;;10.60;;
4106;SDS011;21906;50.812;7.132;2022-08-14T07:59:17;11.27;;;10.37;;
4106;SDS011;21906;50.812;7.132;2022-08-14T08:01:45;11.47;;;10.57;;
4106;SDS011;21906;50.812;7.132;2022-08-14T08:04:12;11.50;;;10.60;;
4106;SDS011;21906;50.812;7.132;2022-08-14T08:06:39;11.60;;;10.80;;
4106;SDS011;21906;50.812;7.132;2022-08-14T08:09:05;11.07;;;10.37;;
4106;SDS011;21906;50.812;7.132;2022-08-14T08:11:33;10.80;;;10.10;;
4106;SDS011;21906;50.812;7.132;2022-08-14T08:14:02;11.07;;;10.37;;
4106;SDS011;21906;50.812;7.132;2022-08-14T08:16:32;12.10;;;11.30;;
4106;SDS011;21906;50.812;7.132;2022-08-14T08:19:02;12.00;;;11.10;;
4106;SDS011;21906;50.812;7.132;2022-08-14T08:21:32;11.73;;;10.80;;
4106;SDS011;21906;50.812;7.132;2022-08-14T08:24:02;12.00;;;11.20;;
4106;SDS011;21906;50.812;7.132;2022-08-14T08:26:28;12.00;;;11.13;;
4106;SDS011;21906;50.812;7.132;2022-08-14T08:28:55;11.73;;;10.90;;
4106;SDS011;21906;50.812;7.132;2022-08-14T08:31:22;11.93;;;11.13;;
4106;SDS011;21906;50.812;7.132;2022-08-14T08:33:50;11.63;;;10.83;;
4106;SDS011;21906;50.812;7.132;2022-08-14T08:36:17;11.47;;;10.67;;
4106;SDS011;21906;50.812;7.132;2022-08-14T08:38:44;11.60;;;10.80;;
4106;SDS011;21906;50.812;7.132;2022-08-14T08:41:13;11.80;;;11.00;;
4106;SDS011;21906;50.812;7.132;2022-08-14T08:43:39;11.13;;;10.33;;
4106;SDS011;21906;50.812;7.132;2022-08-14T08:46:06;12.90;;;11.80;;
4106;SDS011;21906;50.812;7.132;2022-08-14T08:48:45;12.27;;;11.27;;
4106;SDS011;21906;50.812;7.132;2022-08-14T08:53:54;12.63;;;11.63;;
4106;SDS011;21906;50.812;7.132;2022-08-14T08:56:20;12.30;;;11.40;;
4106;SDS011;21906;50.812;7.132;2022-08-14T08:58:56;12.07;;;11.17;;
4106;SDS011;21906;50.812;7.132;2022-08-14T09:01:26;10.80;;;10.07;;
4106;SDS011;21906;50.812;7.132;2022-08-14T09:04:03;10.93;;;10.23;;
4106;SDS011;21906;50.812;7.132;2022-08-14T09:06:30;11.20;;;10.50;;
4106;SDS011;21906;50.812;7.132;2022-08-14T09:08:56;11.33;;;10.53;;
4106;SDS011;21906;50.812;7.132;2022-08-14T09:11:21;12.37;;;11.40;;
4106;SDS011;21906;50.812;7.132;2022-08-14T09:13:51;12.47;;;11.47;;
4106;SDS011;21906;50.812;7.132;2022-08-14T09:16:21;11.60;;;10.70;;
4106;SDS011;21906;50.812;7.132;2022-08-14T09:18:49;11.57;;;10.67;;
4106;SDS011;21906;50.812;7.132;2022-08-14T09:21:15;11.60;;;10.87;;
4106;SDS011;21906;50.812;7.132;2022-08-14T09:23:42;11.23;;;10.43;;
4106;SDS011;21906;50.812;7.132;2022-08-14T09:26:08;11.20;;;10.30;;
4106;SDS011;21906;50.812;7.132;2022-08-14T09:28:33;11.27;;;10.53;;
4106;SDS011;21906;50.812;7.132;2022-08-14T09:30:59;10.93;;;10.20;;
4106;SDS011;21906;50.812;7.132;2022-08-14T09:38:53;10.50;;;9.63;;
4106;SDS011;21906;50.812;7.132;2022-08-14T09:47:09;10.07;;;9.47;;
4106;SDS011;21906;50.812;7.132;2022-08-14T09:49:36;10.30;;;9.57;;
4106;SDS011;21906;50.812;7.132;2022-08-14T09:52:13;9.03;;;8.53;;
4106;SDS011;21906;50.812;7.132;2022-08-14T09:57:07;9.00;;;8.27;;
4106;SDS011;21906;50.812;7.132;2022-08-14T09:59:46;8.70;;;8.20;;
4106;SDS011;21906;50.812;7.132;2022-08-14T10:04:57;9.53;;;8.57;;
4106;SDS011;21906;50.812;7.132;2022-08-14T10:07:35;9.50;;;9.00;;
4106;SDS011;21906;50.812;7.132;2022-08-14T10:10:02;9.90;;;9.30;;
4106;SDS011;21906;50.812;7.132;2022-08-14T10:12:50;9.67;;;9.07;;
4106;SDS011;21906;50.812;7.132;2022-08-14T10:15:19;9.40;;;8.83;;
4106;SDS011;21906;50.812;7.132;2022-08-14T10:17:47;9.10;;;8.50;;
4106;SDS011;21906;50.812;7.132;2022-08-14T10:20:16;8.90;;;8.40;;
4106;SDS011;21906;50.812;7.132;2022-08-14T10:22:46;8.00;;;7.50;;
4106;SDS011;21906;50.812;7.132;2022-08-14T10:25:14;8.77;;;8.17;;
4106;SDS011;21906;50.812;7.132;2022-08-14T10:27:41;9.13;;;8.57;;
4106;SDS011;21906;50.812;7.132;2022-08-14T10:30:15;8.60;;;8.00;;
4106;SDS011;21906;50.812;7.132;2022-08-14T10:32:44;8.60;;;8.20;;
4106;SDS011;21906;50.812;7.132;2022-08-14T10:35:11;8.47;;;7.97;;
4106;SDS011;21906;50.812;7.132;2022-08-14T10:37:39;7.80;;;7.30;;
4106;SDS011;21906;50.812;7.132;2022-08-14T10:40:07;7.93;;;7.53;;
4106;SDS011;21906;50.812;7.132;2022-08-14T10:42:34;9.43;;;8.17;;
4106;SDS011;21906;50.812;7.132;2022-08-14T10:45:21;8.50;;;7.90;;
4106;SDS011;21906;50.812;7.132;2022-08-14T10:47:57;8.03;;;7.63;;
4106;SDS011;21906;50.812;7.132;2022-08-14T10:52:58;8.57;;;8.03;;
4106;SDS011;21906;50.812;7.132;2022-08-14T10:55:30;7.60;;;7.20;;
4106;SDS011;21906;50.812;7.132;2022-08-14T10:58:01;8.80;;;8.10;;
4106;SDS011;21906;50.812;7.132;2022-08-14T11:00:27;9.03;;;8.43;;
4106;SDS011;21906;50.812;7.132;2022-08-14T11:03:01;8.40;;;8.00;;
4106;SDS011;21906;50.812;7.132;2022-08-14T11:05:38;8.03;;;7.63;;
4106;SDS011;21906;50.812;7.132;2022-08-14T11:08:05;8.37;;;7.83;;
4106;SDS011;21906;50.812;7.132;2022-08-14T11:10:46;8.87;;;8.17;;
4106;SDS011;21906;50.812;7.132;2022-08-14T11:13:18;7.67;;;7.27;;
4106;SDS011;21906;50.812;7.132;2022-08-14T11:15:47;6.43;;;6.13;;
4106;SDS011;21906;50.812;7.132;2022-08-14T11:18:14;6.53;;;6.23;;
4106;SDS011;21906;50.812;7.132;2022-08-14T11:20:47;6.40;;;6.10;;
4106;SDS011;21906;50.812;7.132;2022-08-14T11:23:15;6.97;;;6.67;;
4106;SDS011;21906;50.812;7.132;2022-08-14T11:25:44;6.77;;;6.37;;
4106;SDS011;21906;50.812;7.132;2022-08-14T11:28:13;8.00;;;7.50;;
4106;SDS011;21906;50.812;7.132;2022-08-14T11:30:43;7.60;;;7.07;;
4106;SDS011;21906;50.812;7.132;2022-08-14T11:33:11;7.57;;;7.17;;
4106;SDS011;21906;50.812;7.132;2022-08-14T11:35:37;7.47;;;7.07;;
4106;SDS011;21906;50.812;7.132;2022-08-14T11:38:04;6.67;;;6.30;;
4106;SDS011;21906;50.812;7.132;2022-08-14T11:40:31;5.67;;;5.47;;
4106;SDS011;21906;50.812;7.132;2022-08-14T11:43:00;6.03;;;5.73;;
4106;SDS011;21906;50.812;7.132;2022-08-14T11:45:28;6.37;;;6.07;;
4106;SDS011;21906;50.812;7.132;2022-08-14T11:47:57;6.00;;;5.70;;
4106;SDS011;21906;50.812;7.132;2022-08-14T11:50:24;6.57;;;5.97;;
4106;SDS011;21906;50.812;7.132;2022-08-14T11:52:54;6.47;;;6.17;;
4106;SDS011;21906;50.812;7.132;2022-08-14T11:55:21;6.30;;;6.00;;
4106;SDS011;21906;50.812;7.132;2022-08-14T11:57:58;6.40;;;6.10;;
4106;SDS011;21906;50.812;7.132;2022-08-14T12:00:33;6.60;;;6.30;;
4106;SDS011;21906;50.812;7.132;2022-08-14T12:03:13;6.30;;;6.00;;
4106;SDS011;21906;50.812;7.132;2022-08-14T12:05:40;6.20;;;5.90;;
4106;SDS011;21906;50.812;7.132;2022-08-14T12:08:09;6.20;;;5.80;;
4106;SDS011;21906;50.812;7.132;2022-08-14T12:10:35;6.10;;;5.83;;
4106;SDS011;21906;50.812;7.132;2022-08-14T12:13:24;6.20;;;5.80;;
4106;SDS011;21906;50.812;7.132;2022-08-14T12:15:56;6.13;;;5.83;;
4106;SDS011;21906;50.812;7.132;2022-08-14T12:18:31;6.00;;;5.67;;
4106;SDS011;21906;50.812;7.132;2022-08-14T12:21:22;6.07;;;5.77;;
4106;SDS011;21906;50.812;7.132;2022-08-14T12:24:06;6.20;;;5.90;;
4106;SDS011;21906;50.812;7.132;2022-08-14T12:26:33;6.13;;;5.83;;
4106;SDS011;21906;50.812;7.132;2022-08-14T12:29:07;5.97;;;5.67;;
4106;SDS011;21906;50.812;7.132;2022-08-14T12:31:39;5.80;;;5.60;;
4106;SDS011;21906;50.812;7.132;2022-08-14T12:34:12;5.93;;;5.63;;
4106;SDS011;21906;50.812;7.132;2022-08-14T12:36:42;6.50;;;6.10;;
4106;SDS011;21906;50.812;7.132;2022-08-14T12:39:19;6.23;;;5.93;;
4106;SDS011;21906;50.812;7.132;2022-08-14T12:41:48;6.07;;;5.77;;
4106;SDS011;21906;50.812;7.132;2022-08-14T12:44:30;5.60;;;5.40;;
4106;SDS011;21906;50.812;7.132;2022-08-14T12:47:05;5.70;;;5.40;;
4106;SDS011;21906;50.812;7.132;2022-08-14T12:49:35;6.03;;;5.73;;
4106;SDS011;21906;50.812;7.132;2022-08-14T12:52:01;6.33;;;6.03;;
4106;SDS011;21906;50.812;7.132;2022-08-14T12:54:27;5.43;;;5.17;;
4106;SDS011;21906;50.812;7.132;2022-08-14T12:57:07;6.27;;;5.97;;
4106;SDS011;21906;50.812;7.132;2022-08-14T12:59:35;6.40;;;6.00;;
4106;SDS011;21906;50.812;7.132;2022-08-14T13:02:01;6.00;;;5.70;;
4106;SDS011;21906;50.812;7.132;2022-08-14T13:04:27;5.90;;;5.70;;
4106;SDS011;21906;50.812;7.132;2022-08-14T13:06:55;5.70;;;5.40;;
4106;SDS011;21906;50.812;7.132;2022-08-14T13:09:31;5.03;;;4.83;;
4106;SDS011;21906;50.812;7.132;2022-08-14T13:11:57;4.90;;;4.60;;
4106;SDS011;21906;50.812;7.132;2022-08-14T13:14:26;5.70;;;5.50;;
4106;SDS011;21906;50.812;7.132;2022-08-14T13:16:57;5.10;;;4.90;;
4106;SDS011;21906;50.812;7.132;2022-08-14T13:19:24;5.23;;;5.03;;
4106;SDS011;21906;50.812;7.132;2022-08-14T13:21:51;5.97;;;5.67;;
4106;SDS011;21906;50.812;7.132;2022-08-14T13:24:21;5.07;;;4.87;;
4106;SDS011;21906;50.812;7.132;2022-08-14T13:26:51;5.30;;;5.10;;
4106;SDS011;21906;50.812;7.132;2022-08-14T13:29:24;5.60;;;5.40;;
4106;SDS011;21906;50.812;7.132;2022-08-14T13:31:54;5.17;;;4.80;;
4106;SDS011;21906;50.812;7.132;2022-08-14T13:34:25;5.00;;;4.80;;
4106;SDS011;21906;50.812;7.132;2022-08-14T13:36:53;5.83;;;5.53;;
4106;SDS011;21906;50.812;7.132;2022-08-14T13:39:21;5.83;;;5.63;;
4106;SDS011;21906;50.812;7.132;2022-08-14T13:41:48;5.20;;;5.00;;
4106;SDS011;21906;50.812;7.132;2022-08-14T13:44:14;5.87;;;5.57;;
4106;SDS011;21906;50.812;7.132;2022-08-14T13:46:44;5.20;;;4.90;;
4106;SDS011;21906;50.812;7.132;2022-08-14T13:49:11;5.00;;;4.80;;
4106;SDS011;21906;50.812;7.132;2022-08-14T13:51:41;4.97;;;4.67;;
4106;SDS011;21906;50.812;7.132;2022-08-14T13:54:12;5.60;;;5.40;;
4106;SDS011;21906;50.812;7.132;2022-08-14T13:56:42;6.30;;;5.80;;
4106;SDS011;21906;50.812;7.132;2022-08-14T13:59:08;5.33;;;5.13;;
4106;SDS011;21906;50.812;7.132;2022-08-14T14:01:35;5.37;;;5.17;;
4106;SDS011;21906;50.812;7.132;2022-08-14T14:04:04;5.20;;;4.90;;
4106;SDS011;21906;50.812;7.132;2022-08-14T14:06:31;5.37;;;5.07;;
4106;SDS011;21906;50.812;7.132;2022-08-14T14:08:58;5.53;;;5.33;;
4106;SDS011;21906;50.812;7.132;2022-08-14T14:11:26;5.10;;;4.90;;
4106;SDS011;21906;50.812;7.132;2022-08-14T14:13:54;5.97;;;5.67;;
4106;SDS011;21906;50.812;7.132;2022-08-14T14:16:21;5.53;;;5.33;;
4106;SDS011;21906;50.812;7.132;2022-08-14T14:18:51;5.27;;;5.07;;
4106;SDS011;21906;50.812;7.132;2022-08-14T14:21:23;5.70;;;5.40;;
4106;SDS011;21906;50.812;7.132;2022-08-14T14:23:54;6.30;;;5.90;;
4106;SDS011;21906;50.812;7.132;2022-08-14T14:26:20;5.73;;;5.53;;
4106;SDS011;21906;50.812;7.132;2022-08-14T14:28:47;5.77;;;5.57;;
4106;SDS011;21906;50.812;7.132;2022-08-14T14:31:34;6.13;;;5.73;;
4106;SDS011;21906;50.812;7.132;2022-08-14T14:34:02;4.97;;;4.77;;
4106;SDS011;21906;50.812;7.132;2022-08-14T14:36:29;5.23;;;5.03;;
4106;SDS011;21906;50.812;7.132;2022-08-14T14:39:00;6.00;;;5.80;;
4106;SDS011;21906;50.812;7.132;2022-08-14T14:41:30;5.30;;;5.10;;
4106;SDS011;21906;50.812;7.132;2022-08-14T14:44:06;6.20;;;5.90;;
4106;SDS011;21906;50.812;7.132;2022-08-14T14:46:35;6.03;;;5.83;;
4106;SDS011;21906;50.812;7.132;2022-08-14T14:49:05;5.53;;;5.23;;
4106;SDS011;21906;50.812;7.132;2022-08-14T14:51:32;5.60;;;5.40;;
4106;SDS011;21906;50.812;7.132;2022-08-14T14:53:58;5.60;;;5.30;;
4106;SDS011;21906;50.812;7.132;2022-08-14T14:56:25;5.60;;;5.40;;
4106;SDS011;21906;50.812;7.132;2022-08-14T14:58:55;6.03;;;5.73;;
4106;SDS011;21906;50.812;7.132;2022-08-14T15:01:21;6.00;;;5.80;;
4106;SDS011;21906;50.812;7.132;2022-08-14T15:03:48;5.93;;;5.63;;
4106;SDS011;21906;50.812;7.132;2022-08-14T15:06:18;6.20;;;5.90;;
4106;SDS011;21906;50.812;7.132;2022-08-14T15:08:45;5.70;;;5.50;;
4106;SDS011;21906;50.812;7.132;2022-08-14T15:11:10;6.27;;;6.07;;
4106;SDS011;21906;50.812;7.132;2022-08-14T15:13:36;5.63;;;5.43;;
4106;SDS011;21906;50.812;7.132;2022-08-14T15:16:03;6.20;;;6.00;;
4106;SDS011;21906;50.812;7.132;2022-08-14T15:18:30;6.37;;;6.07;;
4106;SDS011;21906;50.812;7.132;2022-08-14T15:20:56;6.50;;;6.10;;
4106;SDS011;21906;50.812;7.132;2022-08-14T15:23:25;6.07;;;5.77;;
4106;SDS011;21906;50.812;7.132;2022-08-14T15:25:50;6.50;;;6.30;;
4106;SDS011;21906;50.812;7.132;2022-08-14T15:28:16;6.27;;;5.97;;
4106;SDS011;21906;50.812;7.132;2022-08-14T15:30:43;6.23;;;6.03;;